createdAt,value
2023-05-23T00:00:04.401Z,20.4
2023-05-23T00:10:04.632Z,20.6
2023-05-23T00:20:03.495Z,20.4
2023-05-23T00:30:03.261Z,20.3
2023-05-23T00:40:02.954Z,20.7
2023-05-23T00:50:02.125Z,20.2
2023-05-23T01:00:01.798Z,20.7
2023-05-23T01:10:01.516Z,20.3
2023-05-23T01:20:01.492Z,20.2
2023-05-23T01:30:00.833Z,20.2
2023-05-23T01:40:00.252Z,20.3
2023-05-23T01:50:00.710Z,20.1
2023-05-23T02:00:00.415Z,20.3
2023-05-23T02:10:00.254Z,20.1
2023-05-23T02:20:00.124Z,20.3
2023-05-23T02:29:59.782Z,20.1
2023-05-23T02:39:59.502Z,20.1
2023-05-23T02:49:59.371Z,19.9
2023-05-23T03:10:04.612Z,20
2023-05-23T03:20:04.335Z,20.4
2023-05-23T03:30:03.481Z,20.1
2023-05-23T03:40:02.719Z,19.9
2023-05-23T03:50:02.249Z,20.1
2023-05-23T04:00:02.022Z,20
2023-05-23T04:10:02.734Z,20.1
2023-05-23T04:20:03.365Z,20.1
2023-05-23T04:30:04.397Z,20.1
2023-05-23T04:40:05.291Z,20.3
2023-05-23T04:50:06.471Z,20.3
2023-05-23T05:00:06.788Z,20.2
2023-05-23T05:10:05.917Z,20.1
2023-05-23T05:20:05.212Z,20.3
2023-05-23T05:30:05.334Z,20.2
2023-05-23T05:40:04.515Z,20.1
2023-05-23T05:50:04.162Z,20.3
2023-05-23T06:00:06.306Z,20
2023-05-23T06:10:09.132Z,20.6
2023-05-23T06:20:16.846Z,20.6
2023-05-23T06:30:25.893Z,20.6
2023-05-23T06:40:41.025Z,20.1
2023-05-23T06:50:56.898Z,20.7
2023-05-23T07:01:13.815Z,20
2023-05-23T07:11:30.701Z,20.5
2023-05-23T07:21:47.346Z,21.2
2023-05-23T07:32:03.963Z,21.3
2023-05-23T07:42:19.359Z,21.7
2023-05-23T07:52:36.038Z,21.6
2023-05-23T08:02:54.403Z,22.3
2023-05-23T08:13:12.747Z,22.6
2023-05-23T08:23:30.999Z,22.7
2023-05-23T08:33:49.628Z,22.4
2023-05-23T08:44:07.158Z,22.1
2023-05-23T08:54:26.071Z,22.9
2023-05-23T09:10:22.960Z,22.7
2023-05-23T09:20:40.845Z,22.8
2023-05-23T09:31:00.178Z,23.1
2023-05-23T09:41:19.412Z,22.4
2023-05-23T09:51:38.709Z,23.4
2023-05-23T10:01:56.916Z,22.6
2023-05-23T10:12:17.456Z,22.8
2023-05-23T10:22:37.749Z,23
2023-05-23T10:32:58.258Z,22.8
2023-05-23T10:43:18.453Z,23
2023-05-23T10:53:37.320Z,23.3
2023-05-23T11:03:56.077Z,23.3
2023-05-23T11:14:11.519Z,23.3
2023-05-23T11:24:25.330Z,23.1
2023-05-23T11:34:39.176Z,22.8
2023-05-23T11:44:52.919Z,22.8
2023-05-23T11:55:07.136Z,23.1
2023-05-23T12:05:20.880Z,22.7
2023-05-23T12:15:34.955Z,22.8
2023-05-23T12:25:47.351Z,22.8
2023-05-23T12:36:00.845Z,23.4
2023-05-23T12:46:14.082Z,22.9
2023-05-23T12:56:26.978Z,22.5
2023-05-23T13:06:35.756Z,22.8
2023-05-23T13:16:47.458Z,22.7
2023-05-23T13:26:58.809Z,22.9
2023-05-23T13:37:05.861Z,22.5
2023-05-23T13:47:15.757Z,22.7
2023-05-23T13:57:20.535Z,23.1
2023-05-23T14:07:25.931Z,25.8
2023-05-23T14:17:27.268Z,23.1
2023-05-23T14:27:27.556Z,22.8
2023-05-23T14:37:28.066Z,22.6
2023-05-23T14:47:28.802Z,23.1
2023-05-23T14:57:29.184Z,22.8
2023-05-23T15:10:05.274Z,22.9
2023-05-23T15:20:07.143Z,22.9
2023-05-23T15:30:06.906Z,22.8
2023-05-23T15:40:07.422Z,22.7
2023-05-23T15:50:07.838Z,23
2023-05-23T16:00:07.879Z,22.8
2023-05-23T16:10:09.575Z,22.8
2023-05-23T16:20:10.771Z,23.1
2023-05-23T16:30:11.244Z,22.8
2023-05-23T16:40:11.898Z,22.7
2023-05-23T16:50:12.507Z,22.6
2023-05-23T17:00:13.260Z,22.6
2023-05-23T17:10:12.937Z,22.7
2023-05-23T17:20:13.152Z,23
2023-05-23T17:30:12.938Z,22.9
2023-05-23T17:40:12.613Z,22.8
2023-05-23T17:50:12.241Z,22.6
2023-05-23T18:00:12.546Z,22.5
2023-05-23T18:10:12.281Z,22.9
2023-05-23T18:20:11.980Z,22.8
2023-05-23T18:30:11.673Z,22.6
2023-05-23T18:40:11.664Z,22.4
2023-05-23T18:50:11.082Z,22.4
2023-05-23T19:00:10.833Z,22.3
2023-05-23T19:10:09.716Z,22.1
2023-05-23T19:20:09.416Z,22.1
2023-05-23T19:30:09.113Z,22.5
2023-05-23T19:40:08.497Z,22
2023-05-23T19:50:07.950Z,22
2023-05-23T20:00:07.734Z,21.9
2023-05-23T20:10:07.413Z,22
2023-05-23T20:20:06.467Z,21.9
2023-05-23T20:30:06.251Z,21.9
2023-05-23T20:40:05.477Z,21.9
2023-05-23T20:50:05.351Z,21.8
2023-05-23T21:10:05.324Z,22.2
2023-05-23T21:20:06.698Z,21.9
2023-05-23T21:30:08.273Z,21.8
2023-05-23T21:40:09.750Z,21.8
2023-05-23T21:50:11.166Z,21.7
2023-05-23T22:00:12.913Z,21.9
2023-05-23T22:10:15.313Z,21.7
2023-05-23T22:20:18.204Z,21.7
2023-05-23T22:30:20.980Z,21.7
2023-05-23T22:40:23.659Z,21.8
2023-05-23T22:50:26.444Z,21.7
2023-05-23T23:00:28.502Z,21.7
2023-05-23T23:10:29.944Z,21.6
2023-05-23T23:20:31.467Z,21.4
2023-05-23T23:30:32.844Z,21.4
2023-05-23T23:40:34.356Z,21.3
2023-05-23T23:50:35.848Z,21.4
